Time;durP1;ratioP1;P1;durP2;ratioP2;P2;SDS_P1;SDS_P2;PMS_P1;PMS_P2;Temp;Humidity;BMP_temperature;BMP_pressure;BME280_temperature;BME280_humidity;BME280_pressure;Samples;Min_cycle;Max_cycle;Signal;HPM_P1;HPM_P2
2022/07/27 00:02:06;;;;;;;4.53;3.67;;;;;;;14.73;77.23;101562.31;5011248;28;20472;-43
2022/07/27 00:04:33;;;;;;;7.10;3.80;;;;;;;14.71;77.61;101562.53;5012297;28;20444;-43
2022/07/27 00:07:01;;;;;;;8.03;4.23;;;;;;;14.76;77.68;101564.59;5011978;28;20457;-43
2022/07/27 00:09:29;;;;;;;9.40;4.20;;;;;;;14.74;76.58;101561.31;5012152;28;20792;-44
2022/07/27 00:11:56;;;;;;;4.60;3.50;;;;;;;14.78;77.08;101566.03;5011592;28;20826;-41
2022/07/27 00:14:25;;;;;;;5.03;3.57;;;;;;;14.79;75.76;101561.50;5011655;28;20476;-43
2022/07/27 00:16:53;;;;;;;6.03;4.47;;;;;;;14.77;74.90;101561.72;5012035;28;20457;-42
2022/07/27 00:19:22;;;;;;;7.47;4.00;;;;;;;14.80;74.96;101565.84;5012037;28;20439;-41
2022/07/27 00:21:50;;;;;;;9.90;5.00;;;;;;;14.79;74.92;101562.34;5011447;28;20487;-42
2022/07/27 00:24:17;;;;;;;4.17;3.70;;;;;;;14.78;75.41;101559.88;5011568;28;20433;-42
2022/07/27 00:26:45;;;;;;;6.97;3.60;;;;;;;14.80;75.29;101555.94;5011748;28;20460;-42
2022/07/27 00:29:13;;;;;;;11.70;4.20;;;;;;;14.82;75.47;101553.03;5011720;28;20443;-41
2022/07/27 00:31:42;;;;;;;11.73;4.10;;;;;;;14.82;74.88;101558.41;5011426;28;20465;-43
2022/07/27 00:34:10;;;;;;;10.80;4.63;;;;;;;14.83;74.82;101560.91;5011370;28;20950;-42
2022/07/27 00:36:38;;;;;;;13.87;4.57;;;;;;;14.83;74.77;101560.91;5011809;28;20465;-43
2022/07/27 00:39:05;;;;;;;4.93;3.20;;;;;;;14.85;74.81;101564.22;5011725;28;20432;-42
2022/07/27 00:41:33;;;;;;;9.50;4.20;;;;;;;14.82;74.56;101561.94;5011041;28;20477;-42
2022/07/27 00:44:04;;;;;;;8.30;4.03;;;;;;;14.87;75.93;101564.81;5011752;28;20814;-42
2022/07/27 00:46:31;;;;;;;5.57;3.60;;;;;;;14.82;73.73;101566.47;5011450;28;20460;-42
2022/07/27 00:49:00;;;;;;;6.27;4.03;;;;;;;14.81;75.22;101571.00;5011752;28;20566;-43
2022/07/27 00:51:28;;;;;;;6.23;4.10;;;;;;;14.81;75.69;101568.31;5010971;28;20469;-42
2022/07/27 00:53:56;;;;;;;6.23;4.00;;;;;;;14.82;75.72;101561.94;5011297;28;20923;-41
2022/07/27 00:56:24;;;;;;;8.07;4.00;;;;;;;14.86;76.69;101562.34;5011407;28;20587;-41
2022/07/27 00:58:53;;;;;;;8.90;5.17;;;;;;;14.78;75.81;101562.56;5011688;28;20425;-41
2022/07/27 01:01:21;;;;;;;8.80;3.97;;;;;;;14.77;75.76;101558.22;5011115;28;20469;-42
2022/07/27 01:03:49;;;;;;;7.00;3.97;;;;;;;14.66;74.46;101556.97;5011407;28;20429;-42
2022/07/27 01:06:19;;;;;;;7.00;3.73;;;;;;;14.68;76.78;101552.22;5015075;28;20457;-41
2022/07/27 01:09:55;;;;;;;9.00;4.23;;;;;;;14.73;76.34;101563.16;5015396;28;20437;-42
2022/07/27 01:11:43;;;;;;;4.00;3.73;;;;;;;14.74;75.75;101556.75;5014678;28;20461;-42
2022/07/27 01:14:12;;;;;;;5.20;3.97;;;;;;;14.76;76.72;101562.75;5014878;28;20448;-43
2022/07/27 01:16:40;;;;;;;7.07;5.33;;;;;;;14.72;77.59;101558.84;5015093;28;20545;-41
2022/07/27 01:19:09;;;;;;;6.97;4.17;;;;;;;14.65;77.48;101551.78;5014929;28;20926;-41
2022/07/27 01:21:39;;;;;;;8.20;4.20;;;;;;;14.67;77.06;101563.97;5014432;28;20496;-44
2022/07/27 01:24:07;;;;;;;11.93;4.77;;;;;;;14.63;78.10;101554.69;5014865;28;20795;-44
2022/07/27 01:26:35;;;;;;;8.30;3.90;;;;;;;14.58;77.14;101565.19;5014836;28;20463;-44
2022/07/27 01:29:03;;;;;;;9.17;4.20;;;;;;;14.53;77.78;101562.28;5014694;28;20802;-42
2022/07/27 01:31:31;;;;;;;7.10;4.73;;;;;;;14.45;76.19;101553.59;5014148;28;20468;-44
2022/07/27 01:33:59;;;;;;;9.67;4.10;;;;;;;14.48;74.85;101556.72;5014505;28;20781;-41
2022/07/27 01:36:27;;;;;;;6.07;3.83;;;;;;;14.48;75.60;101559.41;5014672;28;20453;-42
2022/07/27 01:38:56;;;;;;;8.60;4.47;;;;;;;14.48;75.29;101562.06;5014212;28;20515;-42
2022/07/27 01:41:25;;;;;;;8.13;4.50;;;;;;;14.45;76.14;101559.78;5013891;28;20986;-41
2022/07/27 01:43:52;;;;;;;10.90;4.80;;;;;;;14.44;76.72;101565.34;5014321;28;20432;-42
2022/07/27 01:46:20;;;;;;;10.17;4.00;;;;;;;14.46;75.79;101561.44;5014422;28;20473;-45
2022/07/27 01:48:48;;;;;;;9.97;4.33;;;;;;;14.37;74.73;101554.59;5014712;28;20433;-43
2022/07/27 01:51:15;;;;;;;15.50;4.73;;;;;;;14.42;74.41;101548.63;5014225;28;20469;-41
2022/07/27 01:53:43;;;;;;;6.37;4.30;;;;;;;14.44;74.03;101550.09;5014415;28;20440;-43
2022/07/27 01:56:13;;;;;;;9.73;4.13;;;;;;;14.42;73.99;101540.59;5014321;28;20460;-42
2022/07/27 01:58:42;;;;;;;8.17;4.87;;;;;;;14.40;74.01;101538.91;5014225;28;20452;-41
2022/07/27 02:01:10;;;;;;;7.73;3.93;;;;;;;14.38;73.54;101545.53;5028178;23;20468;-48
2022/07/27 02:03:38;;;;;;;8.63;4.20;;;;;;;14.34;73.02;101546.94;5013779;28;20484;-43
2022/07/27 02:06:06;;;;;;;9.60;4.20;;;;;;;14.29;72.69;101535.97;5014040;28;20475;-43
2022/07/27 02:08:35;;;;;;;4.57;3.73;;;;;;;14.33;72.87;101537.25;5013804;28;21226;-45
2022/07/27 02:13:50;;;;;;;10.90;4.27;;;;;;;14.32;72.80;101527.50;5013830;28;20433;-46
2022/07/27 02:16:19;;;;;;;5.67;3.60;;;;;;;14.27;72.94;101514.72;5013269;28;20429;-45
2022/07/27 02:18:47;;;;;;;5.43;4.30;;;;;;;14.24;72.64;101520.50;5013917;28;20441;-44
2022/07/27 02:21:15;;;;;;;4.60;4.07;;;;;;;14.21;72.11;101517.38;5013016;28;20567;-42
2022/07/27 02:23:45;;;;;;;5.30;3.60;;;;;;;14.19;71.96;101520.25;5013279;28;20429;-44
2022/07/27 02:26:13;;;;;;;4.27;3.40;;;;;;;14.17;71.68;101527.69;5013779;28;20533;-45
2022/07/27 02:28:41;;;;;;;8.03;3.77;;;;;;;14.17;71.63;101525.00;5013632;28;20747;-43
2022/07/27 02:31:10;;;;;;;3.60;3.30;;;;;;;14.19;71.78;101528.28;5013102;28;20812;-43
2022/07/27 02:33:38;;;;;;;4.00;3.70;;;;;;;14.22;71.92;101525.19;5013116;28;20429;-45
2022/07/27 02:36:05;;;;;;;10.87;3.63;;;;;;;14.23;71.61;101524.19;5013134;28;20938;-43
2022/07/27 02:38:33;;;;;;;6.20;3.50;;;;;;;14.24;71.47;101525.03;5013214;28;20440;-46
2022/07/27 02:41:00;;;;;;;8.70;4.67;;;;;;;14.26;71.36;101529.16;5012917;28;20463;-42
2022/07/27 02:43:30;;;;;;;4.70;4.30;;;;;;;14.26;71.49;101533.69;5013052;28;20564;-45
2022/07/27 02:45:58;;;;;;;12.40;4.50;;;;;;;14.24;70.97;101525.84;5013124;28;20946;-43
2022/07/27 02:48:27;;;;;;;4.60;3.90;;;;;;;14.24;71.67;101533.06;5013116;28;20849;-45
2022/07/27 02:50:59;;;;;;;5.23;3.97;;;;;;;14.22;71.38;101527.88;5012386;28;20459;-47
2022/07/27 02:53:26;;;;;;;8.97;4.30;;;;;;;14.24;71.78;101531.22;5012779;28;20421;-45
2022/07/27 02:55:54;;;;;;;9.40;4.10;;;;;;;14.24;72.17;101539.25;5013127;28;20451;-48
2022/07/27 02:58:22;;;;;;;4.10;3.03;;;;;;;14.26;72.14;101534.50;5013036;28;20429;-46
2022/07/27 03:00:51;;;;;;;4.60;3.77;;;;;;;14.30;72.54;101533.09;5012221;28;20461;-44
2022/07/27 03:03:25;;;;;;;7.20;3.87;;;;;;;14.34;72.36;101536.22;5012491;28;20559;-46
2022/07/27 03:06:05;;;;;;;6.43;3.50;;;;;;;14.38;72.20;101538.31;5013072;28;20428;-44
2022/07/27 03:08:33;;;;;;;4.53;4.20;;;;;;;14.37;70.75;101531.28;5012730;28;20433;-45
2022/07/27 03:11:01;;;;;;;6.57;4.20;;;;;;;14.35;71.06;101536.03;5012324;28;20638;-43
2022/07/27 03:13:28;;;;;;;5.33;3.90;;;;;;;14.34;73.56;101541.56;5012401;28;20433;-44
2022/07/27 03:15:57;;;;;;;8.47;4.80;;;;;;;14.36;77.65;101536.84;5012520;28;20437;-43
2022/07/27 03:18:24;;;;;;;6.97;4.30;;;;;;;14.41;78.11;101534.38;5012513;28;20931;-44
2022/07/27 03:20:52;;;;;;;6.87;4.10;;;;;;;14.43;77.91;101532.31;5012238;28;20457;-46
2022/07/27 03:23:21;;;;;;;5.47;4.00;;;;;;;14.43;76.38;101535.00;5012380;28;20498;-47
2022/07/27 03:25:49;;;;;;;8.80;4.80;;;;;;;14.43;76.24;101526.94;5012484;28;20468;-46
2022/07/27 03:28:16;;;;;;;6.67;4.50;;;;;;;14.37;76.00;101525.91;5011527;28;20453;-44
2022/07/27 03:30:44;;;;;;;6.00;4.30;;;;;;;14.34;76.60;101533.53;5012497;28;20464;-47
2022/07/27 03:33:11;;;;;;;7.93;5.20;;;;;;;14.34;76.81;101534.34;5011582;28;20461;-44
2022/07/27 03:35:39;;;;;;;5.23;4.70;;;;;;;14.32;78.16;101533.75;5012332;28;20437;-47
2022/07/27 03:38:07;;;;;;;7.30;5.33;;;;;;;14.37;78.52;101538.50;5012295;28;20441;-44
2022/07/27 03:40:39;;;;;;;8.57;5.10;;;;;;;14.38;78.42;101542.84;5012209;28;20426;-47
2022/07/27 03:43:07;;;;;;;16.93;5.73;;;;;;;14.38;79.31;101535.63;5011470;28;20481;-43
2022/07/27 03:45:35;;;;;;;8.63;5.43;;;;;;;14.40;79.51;101541.59;5012538;28;20439;-42
2022/07/27 03:48:03;;;;;;;12.23;5.10;;;;;;;14.41;79.35;101537.06;5012208;28;20822;-42
2022/07/27 03:50:30;;;;;;;12.60;5.10;;;;;;;14.38;79.51;101532.09;5012038;28;20960;-43
2022/07/27 03:52:58;;;;;;;5.17;4.67;;;;;;;14.39;79.95;101533.78;5011598;28;20461;-46
2022/07/27 03:55:26;;;;;;;6.70;4.90;;;;;;;14.35;79.55;101530.66;5012002;28;20433;-43
2022/07/27 03:57:55;;;;;;;6.43;4.77;;;;;;;14.33;79.17;101534.56;5012322;28;20444;-44
2022/07/27 04:00:23;;;;;;;7.63;5.07;;;;;;;14.30;78.88;101534.94;5012129;28;20454;-45
2022/07/27 04:02:52;;;;;;;5.00;4.67;;;;;;;14.26;78.86;101547.09;5011074;28;20998;-42
2022/07/27 04:05:20;;;;;;;10.47;4.37;;;;;;;14.19;78.23;101548.91;5012039;28;20478;-43
2022/07/27 04:07:48;;;;;;;10.10;5.00;;;;;;;14.17;78.11;101545.63;5011740;28;20950;-45
2022/07/27 04:10:21;;;;;;;5.67;4.30;;;;;;;14.20;79.17;101554.09;5011751;28;20429;-42
2022/07/27 04:12:49;;;;;;;5.00;4.50;;;;;;;14.25;78.21;101551.63;5011187;28;20578;-44
2022/07/27 04:15:20;;;;;;;6.10;4.60;;;;;;;14.25;76.83;101553.47;5011847;28;20444;-44
2022/07/27 04:17:47;;;;;;;9.47;4.97;;;;;;;14.24;79.34;101555.38;5011798;28;20529;-44
2022/07/27 04:20:23;;;;;;;9.23;4.83;;;;;;;14.16;76.16;101558.19;5011673;28;20436;-44
2022/07/27 04:22:50;;;;;;;5.73;4.83;;;;;;;14.25;78.55;101556.16;5011002;28;20483;-43
2022/07/27 04:25:18;;;;;;;11.60;4.70;;;;;;;14.20;75.88;101555.94;5011881;28;20433;-46
2022/07/27 04:27:46;;;;;;;7.13;4.20;;;;;;;14.22;75.19;101551.19;5011779;28;20506;-43
2022/07/27 04:30:13;;;;;;;6.17;5.00;;;;;;;14.36;78.24;101542.22;5011837;28;20433;-44
2022/07/27 04:32:42;;;;;;;5.10;4.60;;;;;;;14.40;75.28;101554.19;5010780;28;20499;-45
2022/07/27 04:35:10;;;;;;;7.73;4.83;;;;;;;14.50;75.36;101548.44;5003842;28;20433;-46
2022/07/27 04:37:38;;;;;;;4.50;4.10;;;;;;;14.67;75.49;101538.97;5011940;28;20432;-45
2022/07/27 04:40:24;;;;;;;8.87;5.30;;;;;;;14.87;74.66;101545.22;5014256;28;20432;-44
2022/07/27 04:42:51;;;;;;;11.10;4.80;;;;;;;14.98;73.29;101544.59;5014776;28;21001;-47
2022/07/27 04:45:19;;;;;;;7.83;3.90;;;;;;;15.10;72.69;101553.69;5015395;28;20930;-48
2022/07/27 04:47:48;;;;;;;9.87;4.60;;;;;;;15.37;72.63;101549.13;5015599;28;20470;-45
2022/07/27 04:50:16;;;;;;;5.67;4.60;;;;;;;15.31;71.66;101548.13;5015409;28;20433;-44
2022/07/27 04:52:44;;;;;;;5.80;4.60;;;;;;;15.31;71.11;101552.66;5014611;28;20469;-47
2022/07/27 04:55:12;;;;;;;10.67;4.97;;;;;;;15.25;71.12;101550.81;5015340;28;20437;-44
2022/07/27 04:57:40;;;;;;;6.33;4.80;;;;;;;15.31;73.02;101555.34;5015180;28;20504;-48
2022/07/27 05:00:10;;;;;;;7.10;4.13;;;;;;;15.18;71.95;101555.34;5015146;28;20435;-46
2022/07/27 05:02:39;;;;;;;7.03;4.73;;;;;;;15.15;73.12;101556.59;5014216;28;20465;-47
2022/07/27 05:05:09;;;;;;;7.47;5.27;;;;;;;15.11;73.48;101560.75;5015271;28;20433;-45
2022/07/27 05:07:37;;;;;;;5.60;5.03;;;;;;;15.13;73.73;101565.88;5015189;28;20524;-47
2022/07/27 05:10:05;;;;;;;9.87;4.73;;;;;;;15.17;74.09;101570.63;5014994;28;20439;-46
2022/07/27 05:12:33;;;;;;;7.43;4.73;;;;;;;15.16;73.78;101570.84;5014103;28;20477;-45
2022/07/27 05:15:01;;;;;;;7.47;4.60;;;;;;;15.12;72.49;101566.91;5015016;28;20425;-47
2022/07/27 05:17:28;;;;;;;6.50;4.57;;;;;;;15.03;73.03;101570.81;5014854;28;20437;-47
2022/07/27 05:19:56;;;;;;;5.63;5.13;;;;;;;15.04;73.33;101580.56;5014905;28;20436;-43
2022/07/27 05:22:25;;;;;;;4.90;4.50;;;;;;;14.95;72.28;101575.38;5014112;28;20472;-46
2022/07/27 05:24:53;;;;;;;5.10;4.40;;;;;;;15.04;74.34;101576.00;5014576;28;20476;-48
2022/07/27 05:27:20;;;;;;;4.57;4.20;;;;;;;15.06;74.63;101579.31;5014975;28;20476;-47
2022/07/27 05:29:48;;;;;;;8.07;4.70;;;;;;;15.24;74.91;101584.91;5014844;28;20432;-45
2022/07/27 05:32:16;;;;;;;11.20;4.20;;;;;;;15.41;74.43;101577.25;5013931;28;20475;-44
2022/07/27 05:34:44;;;;;;;5.00;4.60;;;;;;;15.47;72.64;101581.84;5014427;28;20435;-45
2022/07/27 05:37:12;;;;;;;8.27;4.33;;;;;;;15.72;72.80;101580.13;5014499;28;20523;-45
2022/07/27 05:39:42;;;;;;;5.90;5.23;;;;;;;15.84;73.17;101591.91;5014695;28;20440;-44
2022/07/27 05:42:09;;;;;;;6.03;4.60;;;;;;;15.96;69.86;101584.84;5012810;28;20842;-45
2022/07/27 05:44:37;;;;;;;6.70;4.37;;;;;;;16.17;69.50;101581.03;5014200;28;20477;-46
2022/07/27 05:47:05;;;;;;;10.17;4.70;;;;;;;15.98;68.76;101587.31;5014242;28;20441;-49
2022/07/27 05:49:33;;;;;;;9.00;4.80;;;;;;;16.08;70.12;101586.88;5014296;28;20437;-43
2022/07/27 05:52:00;;;;;;;7.90;4.87;;;;;;;16.16;69.53;101589.34;5012757;28;20461;-45
2022/07/27 05:54:28;;;;;;;6.87;4.50;;;;;;;16.12;70.40;101596.19;5014342;28;20425;-45
2022/07/27 05:56:58;;;;;;;4.43;4.13;;;;;;;15.87;68.01;101604.94;5013799;28;20798;-47
2022/07/27 05:59:26;;;;;;;5.93;5.37;;;;;;;15.90;69.85;101596.44;5014176;28;20436;-44
2022/07/27 06:01:54;;;;;;;7.43;4.83;;;;;;;15.67;67.60;101585.31;5013095;28;20476;-44
2022/07/27 06:04:22;;;;;;;11.83;4.70;;;;;;;15.56;70.28;101612.81;5015341;28;20477;-45
2022/07/27 06:09:34;;;;;;;5.60;4.77;;;;;;;15.50;70.94;101606.41;5013330;28;20433;-47
2022/07/27 06:12:04;;;;;;;7.40;4.80;;;;;;;15.68;71.47;101604.97;5012873;28;20471;-46
2022/07/27 06:14:32;;;;;;;5.90;4.20;;;;;;;15.73;69.11;101605.16;5013449;28;20836;-48
2022/07/27 06:17:00;;;;;;;8.27;4.73;;;;;;;15.93;68.93;101611.31;5013540;28;20447;-48
2022/07/27 06:19:28;;;;;;;5.60;4.60;;;;;;;16.16;68.39;101610.88;5013718;28;20523;-42
2022/07/27 06:22:03;;;;;;;6.33;3.90;;;;;;;16.11;65.58;101614.19;5012638;28;20464;-42
2022/07/27 06:24:30;;;;;;;5.30;4.80;;;;;;;16.15;67.37;101609.22;5013052;28;20473;-43
2022/07/27 06:26:58;;;;;;;5.83;4.70;;;;;;;16.16;68.12;101608.97;5013441;28;20440;-44
2022/07/27 06:29:27;;;;;;;5.67;4.37;;;;;;;16.50;65.91;101603.25;5013370;28;20429;-45
2022/07/27 06:31:55;;;;;;;5.67;4.17;;;;;;;16.33;66.76;101612.88;5012913;28;20476;-47
2022/07/27 06:34:22;;;;;;;5.13;3.90;;;;;;;16.45;68.35;101618.41;5013181;28;20810;-43
2022/07/27 06:36:51;;;;;;;6.80;4.60;;;;;;;16.43;66.52;101626.69;5013432;28;20560;-45
2022/07/27 06:39:19;;;;;;;8.83;4.60;;;;;;;16.53;65.23;101607.38;5012800;28;20443;-42
2022/07/27 06:41:47;;;;;;;4.47;4.10;;;;;;;16.83;66.91;101613.88;5012734;28;20495;-43
2022/07/27 06:44:15;;;;;;;12.30;5.07;;;;;;;17.05;64.92;101611.69;5012801;28;20476;-43
2022/07/27 06:46:44;;;;;;;6.83;4.07;;;;;;;17.19;64.29;101607.00;5013303;28;20450;-43
2022/07/27 06:49:12;;;;;;;5.90;4.37;;;;;;;17.33;63.90;101613.94;5013123;28;20443;-45
2022/07/27 06:51:40;;;;;;;10.10;4.63;;;;;;;17.59;60.01;101613.78;5012619;28;20527;-46
2022/07/27 06:54:08;;;;;;;5.67;4.10;;;;;;;18.27;59.70;101624.47;5012353;28;20772;-47
2022/07/27 06:56:35;;;;;;;4.80;4.07;;;;;;;18.35;58.92;101613.34;5012793;28;20437;-46
2022/07/27 06:59:03;;;;;;;4.50;4.13;;;;;;;18.63;61.24;101624.47;5013008;28;20491;-47
2022/07/27 07:01:31;;;;;;;4.10;3.70;;;;;;;18.72;57.99;101620.41;5012438;28;20492;-48
2022/07/27 07:04:00;;;;;;;4.90;3.73;;;;;;;18.57;56.76;101626.19;5012389;28;20532;-46
2022/07/27 07:06:27;;;;;;;4.20;3.80;;;;;;;19.05;55.27;101620.75;5012900;28;20934;-43
2022/07/27 07:08:55;;;;;;;5.03;4.30;;;;;;;18.94;56.15;101628.78;5012155;28;20429;-48
2022/07/27 07:11:23;;;;;;;4.10;3.73;;;;;;;18.16;56.40;101634.97;5012376;28;20474;-43
2022/07/27 07:13:50;;;;;;;7.10;3.97;;;;;;;17.78;56.82;101623.53;5012314;28;20821;-43
2022/07/27 07:16:18;;;;;;;8.07;4.33;;;;;;;17.61;57.90;101639.47;5012802;28;20432;-45
2022/07/27 07:18:45;;;;;;;3.67;3.13;;;;;;;16.86;59.61;101650.34;5012617;28;20532;-46
2022/07/27 07:21:20;;;;;;;3.97;3.70;;;;;;;16.44;62.58;101657.97;5008897;28;20460;-46
2022/07/27 07:23:48;;;;;;;4.50;4.10;;;;;;;16.39;63.73;101651.56;5010997;28;20428;-44
2022/07/27 07:26:16;;;;;;;3.93;3.70;;;;;;;16.34;65.40;101662.13;5011389;28;20479;-45
2022/07/27 07:28:44;;;;;;;6.00;3.97;;;;;;;16.07;65.66;101663.25;5011720;28;20440;-48
2022/07/27 07:31:11;;;;;;;4.50;3.80;;;;;;;16.07;64.15;101660.56;5010524;28;21160;-44
2022/07/27 07:33:39;;;;;;;5.93;4.30;;;;;;;16.08;64.66;101659.50;5011033;28;20468;-46
2022/07/27 07:36:07;;;;;;;4.40;3.77;;;;;;;16.01;66.28;101662.22;5008846;28;20444;-43
2022/07/27 07:38:42;;;;;;;3.83;3.53;;;;;;;15.94;65.35;101673.00;5011060;28;20425;-43
2022/07/27 07:41:09;;;;;;;4.50;4.10;;;;;;;15.98;66.57;101676.06;5009309;28;20468;-48
2022/07/27 07:43:38;;;;;;;4.60;3.87;;;;;;;16.03;67.67;101671.75;5009655;28;20456;-46
2022/07/27 07:46:07;;;;;;;6.47;5.33;;;;;;;16.17;68.89;101669.00;5009819;28;20477;-45
2022/07/27 07:48:35;;;;;;;4.63;3.47;;;;;;;16.19;68.66;101670.44;5009966;28;20437;-45
2022/07/27 07:51:03;;;;;;;11.07;4.63;;;;;;;16.38;68.84;101682.22;5009163;28;20451;-46
2022/07/27 07:53:30;;;;;;;5.67;4.10;;;;;;;16.26;66.66;101682.03;5009740;28;20441;-44
2022/07/27 07:55:59;;;;;;;6.03;4.20;;;;;;;15.95;68.52;101680.03;5010181;28;20429;-45
2022/07/27 07:58:27;;;;;;;6.20;5.20;;;;;;;16.01;71.12;101687.25;5010704;28;20459;-45
2022/07/27 08:00:55;;;;;;;4.20;3.90;;;;;;;15.98;70.28;101686.84;5008367;28;20475;-45
2022/07/27 08:03:22;;;;;;;6.47;4.87;;;;;;;15.94;68.97;101678.38;5009617;28;20429;-45
2022/07/27 08:05:50;;;;;;;4.70;4.30;;;;;;;16.00;70.11;101693.69;5009677;28;20567;-44
2022/07/27 08:08:18;;;;;;;8.43;4.80;;;;;;;16.10;70.82;101703.19;5010269;28;20428;-49
2022/07/27 08:10:45;;;;;;;4.67;4.37;;;;;;;16.13;70.58;101702.78;5008398;28;20463;-44
2022/07/27 08:13:16;;;;;;;5.17;4.60;;;;;;;16.11;70.24;101696.75;5009361;28;20464;-43
2022/07/27 08:15:49;;;;;;;7.80;4.50;;;;;;;15.89;68.95;101705.06;5010174;28;20429;-43
2022/07/27 08:18:16;;;;;;;5.97;4.67;;;;;;;16.00;68.08;101688.31;5011028;28;20425;-44
2022/07/27 08:20:44;;;;;;;9.93;4.73;;;;;;;16.19;67.27;101683.91;5010337;28;20471;-43
2022/07/27 08:23:12;;;;;;;5.70;5.20;;;;;;;16.18;66.00;101701.13;5009718;28;20547;-43
2022/07/27 08:25:41;;;;;;;5.00;4.70;;;;;;;16.30;65.13;101704.81;5010844;28;21084;-43
2022/07/27 08:28:09;;;;;;;6.17;3.93;;;;;;;16.46;65.03;101706.19;5010698;28;20450;-44
2022/07/27 08:30:38;;;;;;;4.80;4.50;;;;;;;16.70;64.83;101694.75;5010797;28;20786;-48
2022/07/27 08:33:06;;;;;;;5.47;4.03;;;;;;;16.96;63.44;101702.75;5009407;28;20462;-44
2022/07/27 08:35:35;;;;;;;9.60;4.33;;;;;;;17.58;63.10;101698.41;5010855;28;20429;-42
2022/07/27 08:38:05;;;;;;;7.07;4.73;;;;;;;18.01;58.63;101701.97;5010735;28;20446;-46
2022/07/27 08:40:33;;;;;;;8.60;4.40;;;;;;;18.45;56.91;101700.09;5010411;28;20471;-45
2022/07/27 08:43:15;;;;;;;4.43;4.00;;;;;;;18.74;58.10;101707.44;5010405;28;20456;-45
2022/07/27 08:45:57;;;;;;;6.47;4.07;;;;;;;19.01;57.45;101702.53;5019193;23;20481;-43
2022/07/27 08:48:26;;;;;;;6.57;4.20;;;;;;;19.09;57.93;101703.03;5010703;28;20474;-47
2022/07/27 08:50:54;;;;;;;6.63;4.43;;;;;;;19.01;55.92;101708.75;5009599;28;20438;-45
2022/07/27 08:53:22;;;;;;;5.07;4.23;;;;;;;18.90;55.86;101711.41;5010098;28;20435;-44
2022/07/27 08:55:50;;;;;;;10.67;4.80;;;;;;;19.16;57.77;101709.16;5010866;28;20459;-44
2022/07/27 08:58:18;;;;;;;5.47;4.60;;;;;;;19.49;55.91;101700.59;5010013;28;20524;-46
2022/07/27 09:00:48;;;;;;;8.00;5.20;;;;;;;19.47;55.19;101707.31;5009445;28;20435;-44
2022/07/27 09:03:19;;;;;;;9.63;4.53;;;;;;;19.63;55.91;101703.91;5009701;28;21032;-45
2022/07/27 09:05:51;;;;;;;15.33;4.20;;;;;;;19.49;54.73;101713.28;5010843;28;20846;-44
2022/07/27 09:08:22;;;;;;;3.97;3.63;;;;;;;19.62;54.54;101702.28;5010615;28;20432;-43
2022/07/27 09:10:51;;;;;;;9.33;4.47;;;;;;;19.20;55.48;101704.94;5009468;28;20429;-43
2022/07/27 09:13:22;;;;;;;4.50;3.93;;;;;;;18.52;55.46;101717.06;5011554;28;20437;-44
2022/07/27 09:15:51;;;;;;;5.80;4.70;;;;;;;18.08;56.64;101718.09;5010239;28;20441;-43
2022/07/27 09:18:41;;;;;;;7.80;3.80;;;;;;;18.07;55.65;101719.19;5010604;28;20833;-47
2022/07/27 09:21:11;;;;;;;6.03;4.37;;;;;;;18.49;56.58;101720.19;5009168;28;20449;-47
2022/07/27 09:23:40;;;;;;;7.63;4.30;;;;;;;18.53;57.54;101716.00;5009491;28;20436;-44
2022/07/27 09:26:16;;;;;;;6.97;4.10;;;;;;;18.78;57.10;101708.66;5010122;28;20482;-43
2022/07/27 09:29:01;;;;;;;3.53;3.20;;;;;;;18.70;54.65;101717.03;5014026;28;20520;-47
2022/07/27 09:31:29;;;;;;;6.43;3.37;;;;;;;18.52;57.66;101709.78;5012879;28;20552;-43
2022/07/27 09:34:00;;;;;;;7.43;3.87;;;;;;;18.72;56.11;101723.06;5013094;28;20487;-42
2022/07/27 09:36:30;;;;;;;9.13;3.90;;;;;;;18.43;53.41;101718.41;5013384;28;20462;-43
2022/07/27 09:39:01;;;;;;;5.83;3.67;;;;;;;18.58;55.22;101708.88;5013281;28;20441;-43
2022/07/27 09:41:40;;;;;;;3.67;3.43;;;;;;;19.14;55.07;101702.34;5012718;28;20475;-43
2022/07/27 09:44:08;;;;;;;7.27;3.50;;;;;;;19.82;52.67;101702.75;5013376;28;20849;-48
2022/07/27 09:46:56;;;;;;;3.60;3.40;;;;;;;19.83;51.84;101710.63;5012852;28;20480;-47
2022/07/27 09:49:30;;;;;;;3.80;3.17;;;;;;;19.46;51.68;101709.19;5013623;28;20495;-48
2022/07/27 09:51:59;;;;;;;6.87;3.67;;;;;;;19.10;53.14;101711.97;5012370;28;20463;-48
2022/07/27 09:54:42;;;;;;;3.50;3.20;;;;;;;18.63;55.34;101711.75;5012503;28;20432;-46
2022/07/27 09:57:11;;;;;;;2.93;2.63;;;;;;;18.30;51.96;101711.25;5003347;28;21059;-46
2022/07/27 09:59:39;;;;;;;5.23;3.07;;;;;;;18.03;53.74;101715.25;5013245;28;20806;-49
2022/07/27 10:02:06;;;;;;;6.40;3.20;;;;;;;17.71;55.67;101703.72;5011678;28;20473;-48
2022/07/27 10:04:36;;;;;;;4.50;3.10;;;;;;;17.61;54.80;101720.38;5013157;28;20443;-49
2022/07/27 10:07:04;;;;;;;2.90;2.70;;;;;;;17.84;54.46;101709.00;5012926;28;20563;-47
2022/07/27 10:09:36;;;;;;;4.80;3.93;;;;;;;18.03;54.21;101709.88;5012511;28;20475;-46
2022/07/27 10:12:04;;;;;;;6.40;3.97;;;;;;;18.30;54.16;101713.13;5011666;28;20475;-46
2022/07/27 10:14:32;;;;;;;3.10;2.80;;;;;;;18.83;50.96;101707.97;5012651;28;20523;-47
2022/07/27 10:17:01;;;;;;;6.93;3.20;;;;;;;19.11;52.48;101717.16;5012471;28;20982;-45
2022/07/27 10:19:34;;;;;;;4.77;2.87;;;;;;;19.00;51.47;101722.47;5012924;28;20520;-44
2022/07/27 10:22:02;;;;;;;3.03;2.73;;;;;;;18.84;51.75;101723.97;5011538;28;20471;-46
2022/07/27 10:24:33;;;;;;;5.07;3.50;;;;;;;19.38;51.22;101723.00;5012213;28;20433;-46
2022/07/27 10:27:18;;;;;;;3.77;3.47;;;;;;;20.15;48.68;101716.56;5012265;28;20508;-47
2022/07/27 10:29:47;;;;;;;3.70;3.30;;;;;;;20.53;48.44;101709.81;4997409;28;20780;-45
2022/07/27 10:32:23;;;;;;;6.07;3.30;;;;;;;20.12;47.35;101718.91;5011165;28;20475;-44
2022/07/27 10:34:51;;;;;;;6.90;3.30;;;;;;;19.53;48.64;101711.78;5012176;28;20436;-45
2022/07/27 10:37:26;;;;;;;4.63;3.10;;;;;;;19.01;50.07;101733.09;5011171;28;20803;-47
2022/07/27 10:40:33;;;;;;;8.80;2.93;;;;;;;19.00;49.51;101725.19;5012410;28;20945;-44
2022/07/27 10:42:44;;;;;;;4.60;3.30;;;;;;;19.64;50.19;101725.34;5011442;28;20469;-45
2022/07/27 10:45:19;;;;;;;3.60;2.87;;;;;;;20.28;48.49;101723.66;5012171;28;21003;-43
2022/07/27 10:47:49;;;;;;;3.67;3.37;;;;;;;20.22;48.65;101725.34;5011715;28;20476;-46
2022/07/27 10:50:29;;;;;;;4.10;3.80;;;;;;;19.47;51.17;101737.06;5011897;28;20801;-48
2022/07/27 10:53:02;;;;;;;4.80;3.30;;;;;;;19.18;51.12;101744.06;5010488;28;20463;-48
2022/07/27 10:55:46;;;;;;;3.83;3.27;;;;;;;18.98;52.04;101748.94;5012284;28;20439;-43
2022/07/27 10:58:45;;;;;;;3.60;3.30;;;;;;;18.97;52.25;101753.50;5012003;28;20803;-45
2022/07/27 11:01:14;;;;;;;3.83;3.50;;;;;;;19.62;50.36;101748.28;5011053;28;20456;-45
2022/07/27 11:03:48;;;;;;;3.80;2.60;;;;;;;19.67;49.30;101756.50;5011671;28;20436;-45
2022/07/27 11:06:22;;;;;;;3.23;2.93;;;;;;;19.37;49.25;101743.00;5011216;28;20460;-46
2022/07/27 11:09:03;;;;;;;3.77;3.00;;;;;;;18.68;53.29;101759.69;5012192;28;20517;-44
2022/07/27 11:11:52;;;;;;;5.77;2.90;;;;;;;18.33;54.81;101756.72;5010845;28;20460;-47
2022/07/27 11:14:19;;;;;;;6.83;3.20;;;;;;;18.05;54.26;101754.47;5011816;28;20433;-47
2022/07/27 11:16:57;;;;;;;4.37;3.20;;;;;;;18.01;55.70;101749.75;5011239;28;20491;-47
2022/07/27 11:19:51;;;;;;;3.10;2.80;;;;;;;18.01;55.91;101744.34;5011434;28;20439;-49
2022/07/27 11:22:29;;;;;;;4.43;3.30;;;;;;;17.92;57.11;101740.28;5009995;28;20465;-43
2022/07/27 11:25:17;;;;;;;5.90;3.70;;;;;;;17.65;57.88;101742.38;5011221;28;20448;-46
2022/07/27 11:27:47;;;;;;;4.03;3.30;;;;;;;17.62;60.15;101743.59;5011397;28;20559;-46
2022/07/27 11:30:21;;;;;;;12.37;4.00;;;;;;;17.72;60.84;101748.50;5011219;28;20435;-46
2022/07/27 11:32:49;;;;;;;4.37;3.97;;;;;;;17.71;60.90;101744.19;5008064;28;20488;-48
2022/07/27 11:35:18;;;;;;;7.27;4.03;;;;;;;17.99;59.37;101746.44;5010825;28;20443;-45
2022/07/27 11:37:58;;;;;;;7.40;4.60;;;;;;;18.60;58.75;101743.78;5009689;28;20443;-46
2022/07/27 11:40:28;;;;;;;4.60;4.07;;;;;;;18.68;57.32;101748.88;5011065;28;20432;-46
2022/07/27 11:43:31;;;;;;;8.53;3.90;;;;;;;18.61;53.83;101745.41;5010300;28;20448;-48